Jack Mc Namara Field Airport Crescent City US
ICAO: KCEC
IATA: CEC
Category: Medium
Scheduled Services: Yes

Elevation: 61 ft
TransAlt. 18000 ft.

Airport Communications:
ASOS:119.925
SEATTLE CNTR:124.85
CTAF:122.8
OAKLAND RDO:122.3
UNICOM:122.8

KCEC Zoom In..

If you have problems with the map follow the link
https://www.worldairports.se/pages/airport.php?
ICAO=KCEC

Runways:

(A) RW 11 length 5000 ft width 150 ft
ILS 108.70 / hdg 117

(B) RW 17 length 5001 ft width 150 ft
---- / hdg 177

(C) RW 29 length 5000 ft width 150 ft
---- / hdg 297

(D) RW 35 length 5001 ft width 150 ft
---- / hdg 357

Location; KCEC
Day. 18 / Time. 21.56 Zulu
* Altimeter: 30.09
* Temperature: 11° c. 51.8°f.
* Wind from: 160° Speed 22 kn with Gusts up to 30 kn.
Dewpoint: 09° c.
Visibility: 8 Statute Miles.
Clouds: Few 1500 ft.
Clouds: Overcast 2800 ft.
Conditions: Light Rain.

KCEC 182156Z AUTO 16022G30KT 8SM -RA FEW015 OVC028 11/09 A3009 RMK AO2 PK WND 17031/2121 SLP191 P0005 T01110094


Wind From 160°
Speed 22 kn.

 
 
jpsmedia.com for Web Design worldairports.se 2019   terms of use